Time;durP1;ratioP1;P1;durP2;ratioP2;P2;SDS_P1;SDS_P2;PMS_P1;PMS_P2;Temp;Humidity;BMP_temperature;BMP_pressure;BME280_temperature;BME280_humidity;BME280_pressure;Samples;Min_cycle;Max_cycle;Signal;HPM_P1;HPM_P2
2022/08/07 00:01:56;;;;;;;6.95;1.73;;;;;;;13.15;76.08;101815.81;5051726;28;20025;-80
2022/08/07 00:04:22;;;;;;;5.25;1.50;;;;;;;13.15;75.96;101802.53;5044189;28;20041;-80
2022/08/07 00:06:48;;;;;;;6.47;1.60;;;;;;;13.17;75.75;101808.53;5042927;28;20048;-83
2022/08/07 00:09:14;;;;;;;4.57;1.65;;;;;;;13.20;75.36;101803.00;5049264;28;20545;-82
2022/08/07 00:11:40;;;;;;;2.80;1.55;;;;;;;13.21;75.14;101804.69;5034905;28;20156;-80
2022/08/07 00:14:06;;;;;;;4.72;1.80;;;;;;;13.18;75.14;101802.28;5048594;28;20102;-80
2022/08/07 00:16:32;;;;;;;5.63;1.77;;;;;;;13.18;75.39;101799.63;5048283;28;20036;-80
2022/08/07 00:18:58;;;;;;;7.07;2.25;;;;;;;13.18;75.48;101796.13;5043489;28;20029;-80
2022/08/07 00:21:23;;;;;;;6.18;1.85;;;;;;;13.15;75.73;101791.94;5068797;28;20071;-80
2022/08/07 00:23:49;;;;;;;11.70;2.20;;;;;;;13.12;76.49;101793.00;5054492;28;20029;-80
2022/08/07 00:26:16;;;;;;;6.80;2.10;;;;;;;13.15;76.78;101794.59;5076971;28;20064;-82
2022/08/07 00:28:43;;;;;;;8.18;2.00;;;;;;;13.18;77.17;101786.34;5053384;28;20405;-82
2022/08/07 00:31:10;;;;;;;9.88;2.13;;;;;;;13.17;77.54;101781.19;5041193;28;20397;-80
2022/08/07 00:33:37;;;;;;;5.72;1.95;;;;;;;13.13;77.56;101780.59;5044107;28;20486;-80
2022/08/07 00:36:05;;;;;;;6.47;1.90;;;;;;;13.07;77.54;101783.75;5055096;28;20036;-82
2022/08/07 00:38:32;;;;;;;5.05;1.90;;;;;;;13.02;77.34;101779.69;5049969;28;20032;-83
2022/08/07 00:40:59;;;;;;;7.30;2.08;;;;;;;12.96;77.37;101779.34;5045725;28;20767;-80
2022/08/07 00:43:26;;;;;;;6.22;2.22;;;;;;;12.87;77.26;101780.91;5062643;28;20040;-80
2022/08/07 00:45:51;;;;;;;5.25;1.88;;;;;;;12.81;77.41;101792.91;5031709;28;20034;-80
2022/08/07 00:48:17;;;;;;;5.70;2.13;;;;;;;12.79;77.50;101792.16;5048685;28;20044;-80
2022/08/07 00:50:43;;;;;;;4.25;1.88;;;;;;;12.76;78.01;101789.75;5032926;28;20044;-80
2022/08/07 00:53:09;;;;;;;5.70;1.88;;;;;;;12.78;77.27;101786.03;5080215;28;20029;-80
2022/08/07 00:55:35;;;;;;;5.75;1.95;;;;;;;12.82;76.82;101783.13;5060471;28;20021;-80
2022/08/07 00:58:02;;;;;;;5.75;2.28;;;;;;;12.84;76.94;101786.47;5053897;28;20028;-80
2022/08/07 01:00:28;;;;;;;6.15;1.77;;;;;;;12.87;76.81;101783.56;5043953;28;20519;-80
2022/08/07 01:02:54;;;;;;;6.57;2.17;;;;;;;12.86;76.63;101785.41;5037933;28;20048;-80
2022/08/07 01:05:21;;;;;;;8.05;1.55;;;;;;;12.88;76.69;101785.28;5053424;28;20033;-80
2022/08/07 01:07:47;;;;;;;5.50;1.90;;;;;;;12.88;76.87;101788.75;5055265;28;20028;-80
2022/08/07 01:10:14;;;;;;;11.82;2.40;;;;;;;12.88;76.74;101787.94;5050651;28;20083;-80
2022/08/07 01:12:41;;;;;;;5.93;2.13;;;;;;;12.85;76.90;101775.75;5053314;28;20509;-80
2022/08/07 01:15:09;;;;;;;3.92;1.45;;;;;;;12.86;76.69;101779.25;5021846;28;20432;-80
2022/08/07 01:17:35;;;;;;;5.30;1.75;;;;;;;12.82;76.79;101773.34;5050326;28;20132;-80
2022/08/07 01:20:08;;;;;;;6.75;1.83;;;;;;;12.82;77.35;101764.56;5080930;28;20086;-80
2022/08/07 01:22:39;;;;;;;6.18;1.88;;;;;;;12.81;77.45;101771.66;5026274;28;20029;-80
2022/08/07 01:25:07;;;;;;;6.63;2.10;;;;;;;12.82;77.72;101770.69;5058406;28;20033;-80
2022/08/07 01:27:35;;;;;;;8.48;2.25;;;;;;;12.81;78.01;101774.31;5033103;28;20032;-80
2022/08/07 01:30:03;;;;;;;5.15;1.63;;;;;;;12.60;78.40;101772.47;5025409;28;20522;-80
2022/08/07 01:32:29;;;;;;;7.55;1.80;;;;;;;12.41;79.14;101770.44;5057088;28;20037;-80
2022/08/07 01:34:56;;;;;;;7.95;1.92;;;;;;;12.40;79.64;101768.78;5035455;28;20119;-79
2022/08/07 01:37:22;;;;;;;5.80;1.85;;;;;;;12.39;79.98;101767.91;5025843;28;20037;-80
2022/08/07 01:39:51;;;;;;;7.28;2.00;;;;;;;12.42;80.45;101761.53;5047715;28;20033;-80
2022/08/07 01:42:25;;;;;;;7.07;1.80;;;;;;;12.47;80.70;101764.66;5064750;28;20047;-80
2022/08/07 01:44:52;;;;;;;6.28;1.77;;;;;;;12.53;80.94;101766.81;5050132;28;20030;-80
2022/08/07 01:47:18;;;;;;;6.63;2.10;;;;;;;12.62;81.34;101759.91;5064398;28;20024;-83
2022/08/07 01:49:45;;;;;;;4.57;1.80;;;;;;;12.71;80.94;101762.78;5066541;28;20048;-83
2022/08/07 01:52:12;;;;;;;8.60;1.92;;;;;;;12.77;80.75;101764.94;5062980;28;20477;-83
2022/08/07 01:54:40;;;;;;;9.05;1.92;;;;;;;12.78;80.63;101756.84;5052690;28;20028;-83
2022/08/07 01:57:26;;;;;;;6.43;1.75;;;;;;;12.77;80.27;101754.31;5050943;28;20032;-80
2022/08/07 02:00:09;;;;;;;7.63;2.30;;;;;;;12.71;80.74;101753.00;5051930;28;20538;-80
2022/08/07 02:02:47;;;;;;;4.25;1.75;;;;;;;12.68;80.92;101753.25;5053565;28;20116;-80
2022/08/07 02:05:24;;;;;;;6.38;1.80;;;;;;;12.67;81.11;101756.03;5028967;28;20048;-80
2022/08/07 02:07:53;;;;;;;10.25;1.90;;;;;;;12.65;81.31;101759.66;5061492;28;20100;-80
2022/08/07 02:10:28;;;;;;;5.22;2.20;;;;;;;12.61;81.94;101754.75;5053841;28;20155;-80
2022/08/07 02:12:59;;;;;;;6.50;2.08;;;;;;;12.57;81.90;101764.75;5032344;28;20452;-80
2022/08/07 02:15:31;;;;;;;6.28;2.17;;;;;;;12.53;82.15;101761.50;5042641;28;20041;-82
2022/08/07 02:17:59;;;;;;;7.82;2.33;;;;;;;12.50;81.90;101759.09;5028014;28;20075;-83
2022/08/07 02:20:27;;;;;;;8.95;2.35;;;;;;;12.49;82.13;101761.88;5049806;28;20029;-80
2022/08/07 02:22:58;;;;;;;5.80;2.28;;;;;;;12.47;82.33;101753.22;5048399;28;20057;-80
2022/08/07 02:25:26;;;;;;;8.43;1.55;;;;;;;12.42;82.32;101760.69;5084405;28;20453;-80
2022/08/07 02:27:59;;;;;;;4.78;1.73;;;;;;;12.37;82.33;101761.06;5061781;28;20047;-80
2022/08/07 02:30:26;;;;;;;7.95;2.35;;;;;;;12.31;82.51;101750.97;5064546;28;20040;-79
2022/08/07 02:32:56;;;;;;;6.95;2.00;;;;;;;12.25;82.76;101753.13;5062984;28;20037;-80
2022/08/07 02:35:24;;;;;;;12.38;2.53;;;;;;;12.19;82.48;101752.78;5046255;28;20048;-83
2022/08/07 02:37:56;;;;;;;7.97;2.15;;;;;;;12.15;82.81;101746.88;5037604;28;20100;-83
2022/08/07 02:40:23;;;;;;;5.85;2.15;;;;;;;12.19;83.09;101748.31;5031683;28;20021;-80
2022/08/07 02:42:50;;;;;;;3.45;1.70;;;;;;;12.21;82.99;101745.53;5064475;28;20485;-80
2022/08/07 02:45:21;;;;;;;6.72;2.22;;;;;;;12.24;82.84;101746.16;5032741;28;20525;-82
2022/08/07 02:47:48;;;;;;;2.97;1.80;;;;;;;12.25;82.95;101744.31;5031687;28;20036;-83
2022/08/07 02:50:15;;;;;;;3.35;2.15;;;;;;;12.28;82.28;101746.72;5045398;28;20481;-83
2022/08/07 02:53:14;;;;;;;2.58;1.83;;;;;;;12.22;82.51;101739.28;5040818;28;20040;-83
2022/08/07 02:55:46;;;;;;;6.45;1.52;;;;;;;12.23;82.27;101747.09;5036267;28;20076;-80
2022/08/07 02:58:18;;;;;;;6.35;2.00;;;;;;;12.25;81.91;101744.31;5051493;28;20033;-79
2022/08/07 03:00:49;;;;;;;4.28;1.40;;;;;;;12.24;81.47;101742.66;5044058;28;20026;-80
2022/08/07 03:03:18;;;;;;;5.55;1.48;;;;;;;12.25;81.27;101739.88;5051799;28;20037;-80
2022/08/07 03:05:47;;;;;;;4.00;1.45;;;;;;;12.23;81.08;101731.19;5057384;28;20060;-80
2022/08/07 03:08:16;;;;;;;5.78;1.50;;;;;;;12.23;81.08;101730.38;5004481;28;20032;-80
2022/08/07 03:10:45;;;;;;;3.40;1.30;;;;;;;12.24;81.17;101734.69;5016345;28;20037;-83
2022/08/07 03:13:16;;;;;;;3.28;1.30;;;;;;;12.23;80.86;101727.72;5034929;28;20049;-83
2022/08/07 03:15:43;;;;;;;2.88;1.17;;;;;;;12.22;81.16;101729.53;5047099;28;20083;-80
2022/08/07 03:18:11;;;;;;;3.58;0.90;;;;;;;12.20;80.69;101733.28;5051969;28;20032;-79
2022/08/07 03:20:41;;;;;;;1.67;0.85;;;;;;;12.14;80.78;101729.28;5047252;28;20033;-79
2022/08/07 03:23:09;;;;;;;2.30;1.20;;;;;;;12.11;80.54;101733.03;5051378;28;20040;-79
2022/08/07 03:25:39;;;;;;;0.57;0.50;;;;;;;12.04;80.74;101722.03;5049872;28;20398;-79
2022/08/07 03:28:10;;;;;;;3.55;1.10;;;;;;;11.99;80.73;101734.81;5050552;28;20508;-79
2022/08/07 03:30:38;;;;;;;1.52;0.95;;;;;;;11.98;80.91;101727.84;5045550;28;20032;-79
2022/08/07 03:33:07;;;;;;;3.38;1.00;;;;;;;11.89;80.89;101724.13;5052677;28;20112;-79
2022/08/07 03:35:35;;;;;;;3.25;1.10;;;;;;;11.79;80.92;101716.03;5042252;28;20040;-79
2022/08/07 03:38:06;;;;;;;2.22;1.02;;;;;;;11.68;81.20;101713.38;5040956;28;20029;-79
2022/08/07 03:40:32;;;;;;;2.13;1.40;;;;;;;11.57;81.72;101721.31;5052989;28;20033;-79
2022/08/07 03:43:00;;;;;;;3.17;1.00;;;;;;;11.48;81.85;101718.41;5027469;28;20123;-79
2022/08/07 03:45:28;;;;;;;2.63;0.90;;;;;;;11.39;82.07;101721.78;5076481;28;20048;-79
2022/08/07 03:47:59;;;;;;;0.70;0.50;;;;;;;11.29;81.61;101722.50;5050474;28;20099;-79
2022/08/07 03:50:27;;;;;;;0.85;0.50;;;;;;;11.26;81.16;101725.38;5035478;28;20049;-79
2022/08/07 03:52:57;;;;;;;1.35;0.68;;;;;;;11.20;81.05;101733.78;5065782;28;20067;-79
2022/08/07 03:55:23;;;;;;;2.45;1.00;;;;;;;11.15;80.98;101725.34;5031688;28;20469;-79
2022/08/07 03:57:50;;;;;;;2.15;0.60;;;;;;;11.09;80.65;101718.72;5028691;28;20054;-79
2022/08/07 04:00:18;;;;;;;2.90;0.80;;;;;;;11.12;80.58;101720.28;5063055;28;20501;-82
2022/08/07 04:02:48;;;;;;;3.95;1.10;;;;;;;11.13;80.67;101717.53;5048888;28;20055;-82
2022/08/07 04:05:23;;;;;;;2.63;1.10;;;;;;;11.13;80.45;101712.22;5020297;28;20079;-79
2022/08/07 04:07:50;;;;;;;4.05;1.15;;;;;;;11.15;80.56;101710.31;5034983;28;20039;-79
2022/08/07 04:10:20;;;;;;;2.08;0.82;;;;;;;11.21;80.28;101706.34;5053434;28;20026;-80
2022/08/07 04:12:49;;;;;;;2.15;0.90;;;;;;;11.24;80.19;101698.19;5055141;28;20398;-79
2022/08/07 04:15:16;;;;;;;3.03;0.70;;;;;;;11.26;79.85;101700.72;5040026;28;20040;-79
2022/08/07 04:17:43;;;;;;;2.33;0.63;;;;;;;11.25;79.70;101701.66;5054038;28;20068;-79
2022/08/07 04:20:12;;;;;;;0.65;0.60;;;;;;;11.21;79.69;101693.13;5056125;28;20462;-80
2022/08/07 04:22:40;;;;;;;1.52;0.63;;;;;;;11.14;79.99;101702.50;5052069;28;20474;-80
2022/08/07 04:25:08;;;;;;;2.05;0.40;;;;;;;11.10;79.83;101707.16;5051245;28;20103;-79
2022/08/07 04:27:34;;;;;;;0.40;0.40;;;;;;;11.07;79.75;101704.75;5053083;28;20035;-80
2022/08/07 04:30:01;;;;;;;0.50;0.50;;;;;;;11.08;79.53;101698.53;5054381;28;20061;-80
2022/08/07 04:32:34;;;;;;;1.23;0.70;;;;;;;11.03;79.09;101705.97;5056817;28;20398;-80
2022/08/07 04:35:03;;;;;;;0.73;0.40;;;;;;;10.98;79.11;101698.38;5037827;28;20028;-80
2022/08/07 04:37:30;;;;;;;3.47;0.75;;;;;;;10.96;79.55;101702.09;5047032;28;20033;-79
2022/08/07 04:39:56;;;;;;;5.53;0.80;;;;;;;10.94;79.88;101702.19;5046943;28;20035;-79
2022/08/07 04:42:26;;;;;;;2.60;1.00;;;;;;;10.92;80.21;101698.84;5082414;28;20516;-80
2022/08/07 04:44:54;;;;;;;1.10;0.70;;;;;;;10.91;80.55;101700.63;5070869;28;20047;-80
2022/08/07 04:47:59;;;;;;;2.53;0.80;;;;;;;10.91;80.61;101703.28;5032837;28;20036;-79
2022/08/07 04:50:40;;;;;;;9.65;1.02;;;;;;;10.88;80.75;101700.84;5037062;28;20696;-79
2022/08/07 04:53:24;;;;;;;8.27;0.95;;;;;;;10.80;81.08;101703.22;5044769;28;20037;-79
2022/08/07 04:55:56;;;;;;;5.20;0.73;;;;;;;10.70;81.22;101704.88;5051386;28;20035;-80
2022/08/07 04:58:32;;;;;;;2.67;0.82;;;;;;;10.62;81.41;101708.91;5031424;28;20410;-79
2022/08/07 05:01:37;;;;;;;19.33;1.30;;;;;;;10.65;81.50;101702.59;5064204;28;20090;-79
2022/08/07 05:04:34;;;;;;;22.45;1.42;;;;;;;10.63;80.71;101702.69;5082779;28;20037;-80
2022/08/07 05:07:31;;;;;;;42.65;2.22;;;;;;;10.45;80.62;101717.25;5047107;28;20068;-79
2022/08/07 05:10:22;;;;;;;22.10;1.58;;;;;;;10.28;81.05;101725.44;5051467;28;20025;-80
2022/08/07 05:12:59;;;;;;;69.25;2.10;;;;;;;10.18;81.18;101727.03;5040326;28;20053;-79
2022/08/07 05:15:34;;;;;;;2.70;1.20;;;;;;;10.16;80.76;101727.16;5024449;28;20086;-79
2022/08/07 05:18:05;;;;;;;5.43;1.10;;;;;;;10.19;80.54;101726.09;5058802;28;20473;-79
2022/08/07 05:20:36;;;;;;;4.40;1.13;;;;;;;10.21;80.71;101729.47;5076039;28;20036;-79
2022/08/07 05:23:08;;;;;;;0.70;0.70;;;;;;;10.26;80.83;101721.19;5051484;28;20047;-79
2022/08/07 05:25:36;;;;;;;1.00;0.88;;;;;;;10.26;81.01;101729.97;5073084;28;20028;-82
2022/08/07 05:28:04;;;;;;;1.95;0.93;;;;;;;10.21;81.14;101728.63;5072772;28;20482;-82
2022/08/07 05:30:33;;;;;;;13.27;1.15;;;;;;;10.15;81.52;101729.91;5043516;28;20045;-79
2022/08/07 05:33:02;;;;;;;1.38;0.80;;;;;;;10.11;81.76;101731.09;5043969;28;20044;-79
2022/08/07 05:35:34;;;;;;;1.42;0.80;;;;;;;10.10;81.76;101738.16;5049888;28;20394;-79
2022/08/07 05:38:05;;;;;;;8.35;0.90;;;;;;;10.14;81.77;101741.44;5073615;28;20051;-79
2022/08/07 05:40:35;;;;;;;4.32;0.93;;;;;;;10.10;81.65;101742.59;5062562;28;20033;-79
2022/08/07 05:43:02;;;;;;;2.75;1.10;;;;;;;10.00;82.01;101740.59;5035295;28;20032;-79
2022/08/07 05:45:29;;;;;;;0.77;0.77;;;;;;;10.07;82.19;101745.44;5044133;28;20040;-79
2022/08/07 05:48:00;;;;;;;2.28;0.60;;;;;;;10.16;81.73;101750.09;5049521;28;20039;-80
2022/08/07 05:50:28;;;;;;;0.52;0.30;;;;;;;10.23;81.31;101740.78;5027333;28;20037;-79
2022/08/07 05:52:54;;;;;;;0.57;0.55;;;;;;;10.29;81.37;101742.97;5021335;28;20091;-79
2022/08/07 05:55:21;;;;;;;0.60;0.60;;;;;;;10.32;81.40;101739.25;5066916;28;20033;-79
2022/08/07 05:57:48;;;;;;;1.13;0.60;;;;;;;10.31;81.87;101740.22;5059009;28;20033;-79
2022/08/07 06:00:16;;;;;;;1.10;0.73;;;;;;;10.33;82.07;101742.75;5013516;28;20029;-79
2022/08/07 06:02:50;;;;;;;2.80;0.60;;;;;;;10.33;81.92;101743.59;5046332;28;20029;-79
2022/08/07 06:05:19;;;;;;;4.18;0.70;;;;;;;10.33;82.08;101746.25;5047458;28;20035;-82
2022/08/07 06:07:49;;;;;;;1.35;0.60;;;;;;;10.35;82.12;101748.78;5036937;28;20035;-83
2022/08/07 06:10:15;;;;;;;0.57;0.50;;;;;;;10.39;82.15;101755.53;5044708;28;20088;-82
2022/08/07 06:12:42;;;;;;;1.63;0.47;;;;;;;10.47;82.05;101747.06;5051681;28;20100;-82
2022/08/07 06:15:13;;;;;;;0.47;0.40;;;;;;;10.57;82.24;101748.09;5057059;28;20036;-83
2022/08/07 06:17:40;;;;;;;1.40;0.70;;;;;;;10.63;82.01;101752.94;5007176;28;20394;-79
2022/08/07 06:20:09;;;;;;;1.05;0.50;;;;;;;10.69;82.34;101745.53;5047563;28;20040;-79
2022/08/07 06:22:38;;;;;;;1.52;0.88;;;;;;;10.68;82.64;101744.66;5066443;28;20416;-79
2022/08/07 06:25:16;;;;;;;2.75;1.00;;;;;;;10.66;83.11;101736.00;5036923;28;20083;-79
2022/08/07 06:27:42;;;;;;;1.98;1.20;;;;;;;10.63;83.55;101733.56;5041938;28;20028;-79
2022/08/07 06:30:08;;;;;;;0.98;0.98;;;;;;;10.61;84.22;101738.13;5037076;28;20029;-79
2022/08/07 06:32:34;;;;;;;4.35;1.40;;;;;;;10.61;84.87;101736.34;5040553;28;20029;-79
2022/08/07 06:35:00;;;;;;;3.03;1.38;;;;;;;10.64;85.17;101732.59;5049708;28;20037;-79
2022/08/07 06:37:26;;;;;;;6.40;1.55;;;;;;;10.66;85.62;101736.84;5086026;28;20048;-79
2022/08/07 06:39:52;;;;;;;2.70;1.40;;;;;;;10.74;85.91;101740.72;5041208;28;20033;-79
2022/08/07 06:42:24;;;;;;;2.13;1.67;;;;;;;10.81;86.30;101738.47;5049228;28;20088;-79
2022/08/07 06:45:09;;;;;;;3.38;1.80;;;;;;;10.88;86.52;101734.41;5064027;28;20057;-79
2022/08/07 06:47:35;;;;;;;2.40;1.95;;;;;;;10.98;86.75;101737.19;5048681;28;20041;-79
2022/08/07 06:50:01;;;;;;;11.73;1.80;;;;;;;11.08;86.90;101745.31;5043135;28;20478;-79
2022/08/07 06:52:38;;;;;;;5.35;1.88;;;;;;;11.18;87.18;101740.97;5052369;28;20560;-79
2022/08/07 06:55:12;;;;;;;3.42;2.50;;;;;;;11.26;87.43;101738.59;5048560;28;20029;-80
2022/08/07 06:57:39;;;;;;;5.57;1.77;;;;;;;11.35;87.51;101734.44;5048782;28;20025;-80
2022/08/07 07:00:07;;;;;;;5.82;2.40;;;;;;;11.46;87.85;101732.75;5049999;28;20029;-79
2022/08/07 07:02:35;;;;;;;7.15;1.95;;;;;;;11.51;88.13;101734.09;5077994;28;20041;-79
2022/08/07 07:05:03;;;;;;;3.70;2.03;;;;;;;11.57;88.67;101737.22;5083605;28;20037;-79
2022/08/07 07:07:29;;;;;;;8.63;2.67;;;;;;;11.63;89.19;101728.78;5050313;28;20090;-79
2022/08/07 07:09:54;;;;;;;3.58;2.10;;;;;;;11.66;89.65;101726.75;5056602;28;20103;-79
2022/08/07 07:12:37;;;;;;;7.70;2.08;;;;;;;11.75;89.75;101738.41;5065391;28;20049;-79
2022/08/07 07:15:26;;;;;;;6.90;2.33;;;;;;;11.83;90.50;101731.69;5047203;28;20053;-79
2022/08/07 07:17:58;;;;;;;6.47;2.20;;;;;;;11.93;90.71;101737.13;5052749;28;20032;-80
2022/08/07 07:20:35;;;;;;;4.65;2.00;;;;;;;12.01;91.20;101727.59;5045413;28;20033;-79
2022/08/07 07:23:02;;;;;;;7.32;2.33;;;;;;;12.13;91.60;101736.41;5082493;28;20718;-79
2022/08/07 07:25:28;;;;;;;6.20;2.20;;;;;;;12.32;91.89;101734.94;5046231;28;20059;-79
2022/08/07 07:27:57;;;;;;;3.85;1.80;;;;;;;12.65;92.81;101732.28;5032588;28;20025;-80
2022/08/07 07:30:28;;;;;;;6.22;1.73;;;;;;;13.08;92.93;101733.19;5066940;28;20041;-79
2022/08/07 07:32:57;;;;;;;10.43;1.95;;;;;;;13.48;93.02;101736.06;5043559;28;20040;-80
2022/08/07 07:35:24;;;;;;;5.45;1.98;;;;;;;13.87;92.74;101735.47;5058574;28;20056;-79
2022/08/07 07:37:51;;;;;;;4.45;1.95;;;;;;;14.27;92.17;101741.72;5057411;28;20025;-79
2022/08/07 07:40:19;;;;;;;4.95;1.70;;;;;;;14.63;91.16;101733.22;5042415;28;20025;-80
2022/08/07 07:42:54;;;;;;;12.30;2.38;;;;;;;15.00;89.82;101731.72;5052238;28;20032;-79
2022/08/07 07:45:25;;;;;;;7.57;1.92;;;;;;;15.24;89.04;101728.56;5044747;28;20470;-80
2022/08/07 07:47:53;;;;;;;4.30;1.52;;;;;;;15.36;87.96;101723.09;5049544;28;20074;-79
2022/08/07 07:50:23;;;;;;;5.82;1.63;;;;;;;15.49;87.64;101726.28;5049312;28;20060;-79
2022/08/07 07:52:51;;;;;;;6.60;1.40;;;;;;;15.55;87.37;101727.53;5052045;28;20564;-79
2022/08/07 07:55:19;;;;;;;6.18;1.60;;;;;;;15.62;87.22;101727.78;5052341;28;20474;-79
2022/08/07 07:57:49;;;;;;;6.32;1.95;;;;;;;15.69;86.72;101728.00;5051556;28;20481;-80
2022/08/07 08:00:17;;;;;;;7.13;1.73;;;;;;;15.69;86.27;101734.19;5046413;28;20038;-79
2022/08/07 08:02:45;;;;;;;9.85;2.03;;;;;;;15.72;86.13;101738.38;5048345;28;20486;-79
2022/08/07 08:05:14;;;;;;;9.40;1.33;;;;;;;15.67;86.09;101733.50;5040217;28;20036;-79
2022/08/07 08:07:41;;;;;;;8.73;1.77;;;;;;;15.65;86.01;101731.97;5038410;28;20028;-80
2022/08/07 08:10:09;;;;;;;9.32;1.65;;;;;;;15.60;85.77;101727.09;5059321;28;20157;-79
2022/08/07 08:12:35;;;;;;;6.22;1.30;;;;;;;15.57;85.98;101733.56;5033182;28;20049;-79
2022/08/07 08:15:01;;;;;;;5.95;1.23;;;;;;;15.52;85.64;101725.16;5025642;28;20082;-79
2022/08/07 08:17:31;;;;;;;9.98;1.88;;;;;;;15.56;85.83;101733.69;5049423;28;20044;-79
2022/08/07 08:20:04;;;;;;;8.77;1.60;;;;;;;15.59;85.70;101725.41;5050443;28;20094;-79
2022/08/07 08:28:04;;;;;;;6.85;1.20;;;;;;;15.68;85.45;101716.53;5048796;28;20029;-79
2022/08/07 08:30:33;;;;;;;7.72;1.27;;;;;;;15.77;85.14;101721.97;5043042;28;20036;-79
2022/08/07 08:33:04;;;;;;;7.43;1.50;;;;;;;15.75;84.74;101720.28;5046633;28;20029;-79
2022/08/07 08:35:32;;;;;;;10.63;1.77;;;;;;;15.82;84.77;101725.00;5043406;28;20028;-79
2022/08/07 08:38:01;;;;;;;4.07;1.00;;;;;;;15.86;84.37;101713.09;5048847;28;20033;-79
2022/08/07 08:40:36;;;;;;;7.55;1.15;;;;;;;15.89;84.27;101726.13;5048073;28;20044;-78
2022/08/07 08:43:14;;;;;;;7.65;2.10;;;;;;;15.93;83.78;101716.81;5047581;28;20041;-79
2022/08/07 08:45:45;;;;;;;6.38;1.30;;;;;;;16.02;83.95;101714.28;5055225;28;20482;-79
2022/08/07 08:48:31;;;;;;;6.93;1.27;;;;;;;15.97;83.50;101712.03;5027900;28;20064;-77
2022/08/07 08:51:22;;;;;;;6.63;1.20;;;;;;;15.82;83.40;101715.19;5076007;28;20482;-79
2022/08/07 08:54:00;;;;;;;7.38;1.23;;;;;;;15.72;83.26;101723.25;5047576;28;20053;-79
2022/08/07 08:56:36;;;;;;;4.13;1.00;;;;;;;15.79;82.80;101720.84;5043711;28;20029;-79
2022/08/07 08:59:15;;;;;;;5.93;1.27;;;;;;;15.81;82.31;101718.88;5044010;28;20029;-78
2022/08/07 09:01:49;;;;;;;5.97;1.10;;;;;;;15.74;81.99;101715.09;5046097;28;20039;-79
2022/08/07 09:04:52;;;;;;;7.55;1.00;;;;;;;15.83;81.89;101713.38;5047680;28;20025;-79
2022/08/07 09:07:26;;;;;;;9.40;1.38;;;;;;;15.95;80.97;101714.88;5048411;28;20031;-79
2022/08/07 09:10:14;;;;;;;6.53;1.23;;;;;;;16.06;81.04;101705.00;5048823;28;20055;-79
2022/08/07 09:13:09;;;;;;;8.20;1.15;;;;;;;16.18;80.28;101713.66;5033569;28;20045;-79
2022/08/07 09:15:43;;;;;;;3.83;0.82;;;;;;;16.27;80.03;101704.72;5049093;28;20029;-79
2022/08/07 09:18:15;;;;;;;5.03;1.15;;;;;;;16.37;79.30;101713.50;5058382;28;20390;-79
2022/08/07 09:20:53;;;;;;;6.10;0.80;;;;;;;16.35;78.80;101711.97;5051168;28;20060;-82
2022/08/07 09:23:57;;;;;;;9.30;1.15;;;;;;;16.41;78.55;101713.19;5053969;28;20059;-82
2022/08/07 09:26:43;;;;;;;4.00;0.90;;;;;;;16.49;77.86;101703.44;5086517;28;20163;-82
2022/08/07 09:29:38;;;;;;;3.70;0.90;;;;;;;16.53;77.00;101701.28;5055572;28;20029;-82
2022/08/07 09:32:06;;;;;;;4.72;0.70;;;;;;;16.55;76.62;101695.81;5066725;28;20036;-78
2022/08/07 09:35:04;;;;;;;8.65;1.05;;;;;;;16.57;75.88;101699.16;5054390;28;20063;-78
2022/08/07 09:37:41;;;;;;;5.88;1.02;;;;;;;16.72;75.67;101702.13;5049750;28;20029;-79
2022/08/07 09:40:21;;;;;;;5.50;0.93;;;;;;;16.83;75.03;101693.03;5050352;28;20083;-78
2022/08/07 09:43:10;;;;;;;2.80;0.73;;;;;;;16.95;74.32;101698.97;5066031;28;20030;-79
2022/08/07 09:46:03;;;;;;;3.80;0.80;;;;;;;17.14;73.79;101697.13;5051480;28;20029;-79
2022/08/07 09:48:47;;;;;;;5.72;0.80;;;;;;;17.21;73.13;101700.84;5051147;28;20036;-79
2022/08/07 09:51:22;;;;;;;4.80;0.88;;;;;;;17.20;72.49;101704.53;5063257;28;20477;-78
2022/08/07 09:53:54;;;;;;;6.93;1.03;;;;;;;17.23;72.45;101696.19;5056574;28;20052;-79
2022/08/07 09:56:55;;;;;;;7.88;1.05;;;;;;;17.12;70.40;101697.25;5068423;28;20420;-78
2022/08/07 09:59:30;;;;;;;6.07;1.17;;;;;;;17.06;71.84;101704.06;5032200;28;20076;-79
2022/08/07 10:02:11;;;;;;;4.72;0.65;;;;;;;16.96;72.31;101700.66;5036809;28;20051;-79
2022/08/07 10:05:02;;;;;;;7.95;0.95;;;;;;;16.92;72.28;101701.94;5049789;28;20040;-79
2022/08/07 10:07:46;;;;;;;3.42;0.80;;;;;;;17.03;72.65;101695.50;5023885;28;20034;-79
2022/08/07 10:10:31;;;;;;;7.65;0.80;;;;;;;17.20;72.15;101691.97;5004123;28;20513;-79
2022/08/07 10:12:59;;;;;;;6.32;0.82;;;;;;;17.19;71.13;101694.81;5029664;28;20723;-79
2022/08/07 10:15:38;;;;;;;9.05;0.90;;;;;;;17.19;70.55;101692.13;5033155;28;20037;-79
2022/08/07 10:18:08;;;;;;;2.90;0.75;;;;;;;17.36;70.51;101688.56;5045778;28;20044;-78
2022/08/07 10:20:53;;;;;;;3.65;0.70;;;;;;;17.59;70.15;101685.34;5061755;28;20041;-79
2022/08/07 10:23:48;;;;;;;5.07;0.77;;;;;;;17.64;68.24;101690.22;5049253;28;20521;-79
2022/08/07 10:26:25;;;;;;;5.32;1.02;;;;;;;17.59;68.41;101697.88;5047563;28;20473;-79
2022/08/07 10:29:10;;;;;;;6.72;1.17;;;;;;;17.46;68.02;101696.47;5013672;28;20049;-79
2022/08/07 10:32:13;;;;;;;6.13;0.90;;;;;;;17.53;68.01;101688.66;5042331;28;20041;-79
2022/08/07 10:34:46;;;;;;;4.80;0.85;;;;;;;17.72;67.97;101692.06;5049135;28;20485;-79
2022/08/07 10:37:24;;;;;;;8.00;0.75;;;;;;;17.65;67.22;101681.19;5033558;28;20037;-79
2022/08/07 10:40:02;;;;;;;5.72;1.10;;;;;;;17.72;67.52;101695.59;5030360;28;20032;-80
2022/08/07 10:42:36;;;;;;;4.43;0.60;;;;;;;17.76;67.56;101692.59;5048867;28;20033;-79
2022/08/07 10:45:09;;;;;;;3.38;0.65;;;;;;;17.95;67.55;101688.78;5055544;28;20024;-79
2022/08/07 10:47:48;;;;;;;2.50;0.82;;;;;;;18.26;66.52;101682.03;5050209;28;20401;-79
2022/08/07 10:50:49;;;;;;;4.05;0.88;;;;;;;18.31;65.56;101688.59;5052305;28;20032;-79
2022/08/07 10:53:40;;;;;;;3.92;0.50;;;;;;;18.22;64.93;101694.91;5040114;28;20520;-80
2022/08/07 10:56:31;;;;;;;4.15;0.80;;;;;;;18.11;65.81;101688.00;5051947;28;20071;-80
2022/08/07 10:59:39;;;;;;;2.95;0.73;;;;;;;18.31;65.80;101683.25;5024116;28;20033;-80
2022/08/07 11:02:22;;;;;;;3.75;0.70;;;;;;;18.67;65.16;101678.53;5061827;28;20055;-80
2022/08/07 11:05:00;;;;;;;2.42;0.60;;;;;;;18.83;64.26;101683.91;5044423;28;20044;-80
2022/08/07 11:07:55;;;;;;;7.85;0.80;;;;;;;18.79;62.99;101681.72;5080287;28;20491;-80
2022/08/07 11:10:39;;;;;;;3.05;0.60;;;;;;;18.63;64.16;101674.53;5051467;28;20125;-80
2022/08/07 11:13:13;;;;;;;4.22;0.50;;;;;;;18.60;64.74;101683.75;5057947;28;20079;-80
2022/08/07 11:15:41;;;;;;;1.90;0.85;;;;;;;18.57;64.64;101684.91;5044757;28;20115;-80
2022/08/07 11:18:37;;;;;;;2.88;0.57;;;;;;;18.33;63.72;101675.84;5040391;28;20087;-80
2022/08/07 11:21:11;;;;;;;5.63;0.57;;;;;;;18.16;64.69;101680.34;5052452;28;20446;-80
2022/08/07 11:23:36;;;;;;;5.47;0.60;;;;;;;18.03;65.02;101669.28;5042859;28;20021;-80
2022/08/07 11:26:21;;;;;;;5.38;0.73;;;;;;;18.07;63.15;101671.47;5050447;28;20043;-80
2022/08/07 11:28:55;;;;;;;9.02;1.13;;;;;;;18.21;64.05;101677.19;5050954;28;20045;-80
2022/08/07 11:31:30;;;;;;;4.32;0.65;;;;;;;18.17;63.67;101679.34;5049397;28;20032;-79
2022/08/07 11:34:12;;;;;;;5.72;1.23;;;;;;;18.18;63.68;101677.50;5048126;28;20032;-80
2022/08/07 11:36:55;;;;;;;5.18;1.20;;;;;;;18.13;63.85;101674.50;5039593;28;20025;-86
2022/08/07 11:39:49;;;;;;;5.00;0.80;;;;;;;18.08;63.82;101675.81;5047144;28;20036;-85
2022/08/07 11:42:26;;;;;;;6.72;1.40;;;;;;;18.19;64.35;101669.31;5052425;28;20544;-80
2022/08/07 11:44:58;;;;;;;5.95;1.25;;;;;;;18.28;64.50;101678.22;5057448;28;20040;-80
2022/08/07 11:47:32;;;;;;;4.50;0.65;;;;;;;18.30;64.41;101678.06;5065824;28;20044;-79
2022/08/07 11:50:17;;;;;;;3.75;0.95;;;;;;;18.38;64.25;101661.16;5049275;28;20108;-80
2022/08/07 11:52:55;;;;;;;4.40;0.63;;;;;;;18.54;63.46;101660.34;5045584;28;20433;-80
2022/08/07 11:55:28;;;;;;;3.88;0.80;;;;;;;18.82;62.90;101659.97;5046562;28;20036;-80
2022/08/07 11:58:30;;;;;;;3.97;0.60;;;;;;;18.94;61.11;101660.44;5036111;28;20468;-79